createdAt,value
2023-12-24T13:53:54.825Z,27.40
2023-12-24T13:56:41.166Z,23.48
2023-12-24T13:59:27.122Z,16.48
2023-12-24T14:02:12.897Z,11.90
2023-12-24T14:04:58.752Z,12.23
2023-12-24T14:07:44.424Z,11.57
2023-12-24T14:10:29.939Z,14.27
2023-12-24T14:13:15.825Z,11.10
2023-12-24T14:16:01.643Z,14.10
2023-12-24T14:18:47.332Z,11.88
2023-12-24T14:21:35.471Z,62.35
2023-12-24T14:24:21.576Z,30.10
2023-12-24T14:27:07.533Z,22.30
2023-12-24T14:29:54.871Z,13.52
2023-12-24T14:32:41.186Z,12.98
2023-12-24T14:35:26.753Z,15.77
2023-12-24T14:38:12.912Z,13.15
2023-12-24T14:40:58.904Z,14.45
2023-12-24T14:43:44.285Z,15.88
2023-12-24T14:46:30.091Z,17.25
2023-12-24T14:49:15.935Z,14.25
2023-12-24T14:52:04.659Z,16.90
2023-12-24T14:54:50.404Z,12.82
2023-12-24T14:57:38.959Z,14.40
2023-12-24T15:00:25.228Z,15.85
2023-12-24T15:03:15.536Z,17.20
2023-12-24T15:06:01.820Z,15.45
2023-12-24T15:08:48.566Z,16.98
2023-12-24T15:11:34.372Z,18.52
2023-12-24T15:14:20.488Z,23.42
2023-12-24T15:17:06.446Z,17.67
2023-12-24T15:19:52.158Z,22.80
2023-12-24T15:22:38.394Z,21.05
2023-12-24T15:25:24.829Z,22.70
2023-12-24T15:28:10.338Z,18.73
2023-12-24T15:30:55.935Z,22.02
2023-12-24T15:33:41.938Z,19.75
2023-12-24T15:36:28.005Z,19.90
2023-12-24T15:39:14.775Z,17.63
2023-12-24T15:42:01.364Z,19.40
2023-12-24T15:44:49.379Z,19.15
2023-12-24T15:47:35.940Z,23.85
2023-12-24T15:50:22.367Z,24.75
2023-12-24T15:53:10.505Z,22.17
2023-12-24T15:55:56.026Z,25.80
2023-12-24T15:58:41.455Z,25.38
2023-12-24T16:01:29.932Z,25.05
2023-12-24T16:04:15.694Z,61.33
2023-12-24T16:07:01.732Z,119.95
2023-12-24T16:09:47.219Z,57.95
2023-12-24T16:12:32.980Z,28.25
2023-12-24T16:15:19.541Z,28.83
2023-12-24T16:18:06.309Z,26.45
2023-12-24T16:20:52.272Z,26.60
2023-12-24T16:23:38.250Z,26.52
2023-12-24T16:26:23.875Z,27.67
2023-12-24T16:29:10.136Z,26.15
2023-12-24T16:31:57.965Z,25.40
2023-12-24T16:34:43.826Z,26.38
2023-12-24T16:37:29.434Z,23.00
2023-12-24T16:40:15.336Z,23.02
2023-12-24T16:43:00.907Z,20.42
2023-12-24T16:45:46.648Z,22.30
2023-12-24T16:48:32.393Z,22.83
2023-12-24T16:51:20.025Z,20.42
2023-12-24T16:54:05.929Z,22.98
2023-12-24T16:56:51.558Z,24.23
2023-12-24T16:59:37.698Z,26.63
2023-12-24T17:02:25.675Z,29.13
2023-12-24T17:05:13.433Z,33.03
2023-12-24T17:07:59.326Z,31.38
2023-12-24T17:10:49.892Z,30.08
2023-12-24T17:13:35.977Z,30.00
2023-12-24T17:16:21.584Z,27.60
2023-12-24T17:19:07.997Z,27.77
2023-12-24T17:21:53.970Z,33.05
2023-12-24T17:24:42.654Z,31.42
2023-12-24T17:27:28.240Z,29.38
2023-12-24T17:30:15.829Z,28.85
2023-12-24T17:33:01.640Z,33.47
2023-12-24T17:35:47.563Z,30.58
2023-12-24T17:38:33.429Z,30.48
2023-12-24T17:41:21.648Z,28.65
2023-12-24T17:44:07.516Z,26.90
2023-12-24T17:46:53.041Z,23.67
2023-12-24T17:49:40.167Z,25.38
2023-12-24T17:52:26.471Z,26.52
2023-12-24T17:55:12.041Z,23.42
2023-12-24T17:57:58.370Z,22.02
2023-12-24T18:00:44.029Z,20.33
2023-12-24T18:03:29.443Z,17.40
2023-12-24T18:06:15.115Z,19.63
2023-12-24T18:09:03.011Z,16.00
2023-12-24T18:11:49.970Z,15.32
2023-12-24T18:14:36.982Z,13.15
2023-12-24T18:17:22.860Z,13.63
2023-12-24T18:20:13.451Z,11.27
2023-12-24T18:22:59.234Z,12.02
2023-12-24T18:25:44.827Z,9.05
2023-12-24T18:28:32.563Z,8.02
2023-12-24T18:31:18.252Z,7.60
2023-12-24T18:34:03.946Z,8.27
2023-12-24T18:36:49.811Z,6.82
2023-12-24T18:39:35.481Z,6.68
2023-12-24T18:42:21.125Z,5.72
2023-12-24T18:45:07.775Z,5.72
2023-12-24T18:47:53.614Z,7.10
2023-12-24T18:50:40.493Z,4.80
2023-12-24T18:53:26.349Z,6.80
2023-12-24T18:56:24.777Z,4.47
2023-12-24T18:59:10.525Z,4.88
2023-12-24T19:01:58.851Z,7.38
2023-12-24T19:04:45.240Z,7.43
2023-12-24T19:07:31.050Z,5.70
2023-12-24T19:10:16.875Z,6.57
2023-12-24T19:13:02.780Z,6.95
2023-12-24T19:15:51.032Z,6.40
2023-12-24T19:18:36.924Z,9.25
2023-12-24T19:21:22.719Z,5.55
2023-12-24T19:24:08.279Z,5.38
2023-12-24T19:26:56.216Z,4.78
2023-12-24T19:29:41.878Z,2.67
2023-12-24T19:32:30.474Z,3.92
2023-12-24T19:35:16.548Z,4.40
2023-12-24T19:38:02.247Z,4.75
2023-12-24T19:40:50.838Z,5.65
2023-12-24T19:43:36.711Z,2.70
2023-12-24T19:46:26.264Z,4.05
2023-12-24T19:49:12.538Z,3.75
2023-12-24T19:51:58.396Z,3.72
2023-12-24T19:54:44.042Z,3.53
2023-12-24T19:57:29.606Z,3.28
2023-12-24T20:00:15.506Z,4.53
2023-12-24T20:03:01.289Z,3.83
2023-12-24T20:05:47.269Z,2.80
2023-12-24T20:08:33.611Z,4.80
2023-12-24T20:11:19.414Z,3.17
2023-12-24T20:14:07.136Z,3.45
2023-12-24T20:16:53.035Z,2.65
2023-12-24T20:19:38.872Z,4.40
2023-12-24T20:22:26.252Z,6.97
2023-12-24T20:25:12.077Z,4.82
2023-12-24T20:27:57.911Z,5.10
2023-12-24T20:30:44.102Z,2.90
2023-12-24T20:33:29.843Z,5.93
2023-12-24T20:36:15.746Z,3.88
2023-12-24T20:39:01.315Z,4.43
2023-12-24T20:41:46.900Z,5.05
2023-12-24T20:44:33.044Z,4.45
2023-12-24T20:47:19.028Z,3.90
2023-12-24T20:50:05.518Z,3.85
2023-12-24T20:52:51.234Z,5.18
2023-12-24T20:55:37.143Z,3.03
2023-12-24T20:58:22.756Z,3.17
2023-12-24T21:01:10.614Z,1.80
2023-12-24T21:03:56.619Z,4.82
2023-12-24T21:06:46.620Z,2.85
2023-12-24T21:09:32.373Z,3.25
2023-12-24T21:12:17.899Z,2.05
2023-12-24T21:15:04.248Z,3.00
2023-12-24T21:17:50.988Z,2.00
2023-12-24T21:20:37.067Z,1.50
2023-12-24T21:23:22.819Z,3.13
2023-12-24T21:26:08.923Z,0.88
2023-12-24T21:29:04.163Z,2.22
2023-12-24T21:31:49.695Z,2.00
2023-12-24T21:34:35.343Z,1.17
2023-12-24T21:37:22.712Z,1.42
2023-12-24T21:40:09.560Z,1.38
2023-12-24T21:42:55.585Z,0.95
2023-12-24T21:45:41.317Z,2.28
2023-12-24T21:48:27.279Z,1.27
2023-12-24T21:51:12.881Z,4.15
2023-12-24T21:53:58.315Z,2.95
2023-12-24T21:56:43.828Z,2.35
2023-12-24T21:59:29.509Z,2.30
2023-12-24T22:02:15.042Z,1.48
2023-12-24T22:05:01.215Z,1.70
2023-12-24T22:07:47.125Z,2.10
2023-12-24T22:10:32.610Z,2.03
2023-12-24T22:13:18.202Z,1.50
2023-12-24T22:16:04.551Z,2.03
2023-12-24T22:18:51.511Z,1.58
2023-12-24T22:21:49.528Z,2.08
2023-12-24T22:24:35.440Z,2.30
2023-12-24T22:27:23.096Z,1.80
2023-12-24T22:30:12.373Z,1.83
2023-12-24T22:32:58.369Z,6.30
2023-12-24T22:35:44.649Z,2.25
2023-12-24T22:38:33.441Z,2.08
2023-12-24T22:41:19.204Z,0.98
2023-12-24T22:44:05.147Z,1.75
2023-12-24T22:46:50.798Z,1.58
2023-12-24T22:49:36.471Z,0.95
2023-12-24T22:52:22.500Z,2.58
2023-12-24T22:55:08.604Z,1.67
2023-12-24T22:57:55.014Z,0.85
2023-12-24T23:00:41.359Z,1.63
2023-12-24T23:03:26.797Z,1.52
2023-12-24T23:06:14.362Z,3.15
2023-12-24T23:09:00.487Z,2.65
2023-12-24T23:11:46.468Z,2.03
2023-12-24T23:14:32.207Z,2.33
2023-12-24T23:17:17.847Z,1.42
2023-12-24T23:20:03.622Z,2.53
2023-12-24T23:22:49.430Z,1.58
2023-12-24T23:25:34.898Z,2.40
2023-12-24T23:28:20.483Z,2.55
2023-12-24T23:31:06.325Z,2.38
2023-12-24T23:33:52.397Z,1.52
2023-12-24T23:36:38.881Z,1.33
2023-12-24T23:39:24.636Z,3.15
2023-12-24T23:42:10.422Z,3.15
2023-12-24T23:44:56.383Z,2.33
2023-12-24T23:47:47.231Z,5.13
2023-12-24T23:50:32.779Z,3.63
2023-12-24T23:53:18.377Z,5.15
2023-12-24T23:56:14.226Z,5.68
2023-12-24T23:59:00.615Z,8.25
